Time;durP1;ratioP1;P1;durP2;ratioP2;P2;SDS_P1;SDS_P2;PMS_P1;PMS_P2;Temp;Humidity;BMP_temperature;BMP_pressure;BME280_temperature;BME280_humidity;BME280_pressure;Samples;Min_cycle;Max_cycle;Signal;HPM_P1;HPM_P2
2022/10/12 00:01:09;;;;;;;10.55;3.15;;;;;;;10.73;100.00;100662.00;6333861;22;19995;-81
2022/10/12 00:03:35;;;;;;;3.17;2.90;;;;;;;10.61;100.00;100659.84;6305828;22;20345;-82
2022/10/12 00:06:05;;;;;;;1.60;1.50;;;;;;;10.53;100.00;100665.94;6333629;22;20424;-82
2022/10/12 00:08:32;;;;;;;1.85;1.70;;;;;;;10.53;100.00;100663.16;6332924;22;20507;-82
2022/10/12 00:10:58;;;;;;;2.45;2.20;;;;;;;10.43;100.00;100664.91;6333141;22;20042;-82
2022/10/12 00:13:23;;;;;;;5.05;3.03;;;;;;;10.37;100.00;100672.13;6333361;22;20076;-82
2022/10/12 00:15:49;;;;;;;4.70;3.13;;;;;;;10.35;100.00;100679.31;6333716;22;20015;-82
2022/10/12 00:18:14;;;;;;;0.90;0.90;;;;;;;10.39;100.00;100671.72;6307351;22;20002;-82
2022/10/12 00:20:40;;;;;;;3.13;2.88;;;;;;;10.34;100.00;100661.88;6308347;22;20019;-82
2022/10/12 00:23:06;;;;;;;0.50;0.50;;;;;;;10.44;100.00;100654.59;6335319;22;20436;-82
2022/10/12 00:25:38;;;;;;;3.25;1.45;;;;;;;10.47;100.00;100664.84;6308202;22;20011;-82
2022/10/12 00:28:03;;;;;;;2.47;1.50;;;;;;;10.53;100.00;100663.16;6333763;22;20042;-82
2022/10/12 00:30:29;;;;;;;2.17;1.98;;;;;;;10.52;100.00;100661.56;6336061;22;20432;-82
2022/10/12 00:32:56;;;;;;;4.03;2.28;;;;;;;10.58;100.00;100665.47;6332288;22;20003;-82
2022/10/12 00:35:21;;;;;;;2.92;1.75;;;;;;;10.52;100.00;100661.56;6335958;22;20020;-82
2022/10/12 00:37:47;;;;;;;2.42;1.60;;;;;;;10.48;100.00;100658.09;6336485;22;20332;-82
2022/10/12 00:40:12;;;;;;;1.50;1.40;;;;;;;10.49;100.00;100662.44;6311021;22;20014;-87
2022/10/12 00:42:37;;;;;;;2.10;1.90;;;;;;;10.48;100.00;100667.19;6336340;22;20333;-87
2022/10/12 00:45:03;;;;;;;4.13;2.30;;;;;;;10.40;100.00;100648.31;6337321;22;20341;-87
2022/10/12 00:47:32;;;;;;;1.77;1.50;;;;;;;10.41;100.00;100655.44;6334760;22;20056;-85
2022/10/12 00:50:27;;;;;;;3.05;1.95;;;;;;;10.45;100.00;100668.03;6335466;22;20096;-87
2022/10/12 00:53:01;;;;;;;2.42;2.22;;;;;;;10.39;100.00;100664.19;6327921;22;20445;-87
2022/10/12 00:55:29;;;;;;;2.13;1.92;;;;;;;10.45;100.00;100667.25;6334728;22;20018;-87
2022/10/12 00:57:55;;;;;;;1.63;1.35;;;;;;;10.41;100.00;100666.53;6306945;22;20019;-82
2022/10/12 01:00:21;;;;;;;1.30;1.15;;;;;;;10.52;100.00;100650.47;6335170;22;20056;-87
2022/10/12 01:02:48;;;;;;;4.43;2.92;;;;;;;10.61;100.00;100659.06;6334872;22;20022;-87
2022/10/12 01:05:15;;;;;;;1.67;1.58;;;;;;;10.68;100.00;100662.50;6332266;22;20321;-87
2022/10/12 01:07:40;;;;;;;2.40;2.20;;;;;;;10.68;100.00;100662.50;6335008;22;20030;-87
2022/10/12 01:10:06;;;;;;;2.72;2.35;;;;;;;10.67;100.00;100644.28;6337209;22;20041;-87
2022/10/12 01:12:32;;;;;;;1.75;1.65;;;;;;;10.75;100.00;100656.84;6335626;22;20011;-86
2022/10/12 01:14:58;;;;;;;3.50;3.20;;;;;;;10.85;100.00;100654.28;6336864;22;20019;-82
2022/10/12 01:17:42;;;;;;;2.45;2.13;;;;;;;10.87;100.00;100672.09;6335720;22;20071;-88
2022/10/12 01:20:08;;;;;;;11.15;3.00;;;;;;;10.86;100.00;100669.72;6334585;22;20027;-88
2022/10/12 01:22:42;;;;;;;2.83;2.40;;;;;;;10.86;100.00;100670.50;6334890;22;20018;-87
2022/10/12 01:25:07;;;;;;;3.42;2.25;;;;;;;10.83;100.00;100671.38;6335844;22;20031;-88
2022/10/12 01:27:39;;;;;;;4.70;2.85;;;;;;;10.82;100.00;100664.25;6367930;22;20439;-87
2022/10/12 01:30:17;;;;;;;1.55;1.48;;;;;;;10.82;100.00;100671.78;6314904;22;20006;-87
2022/10/12 01:32:49;;;;;;;2.67;2.47;;;;;;;10.74;100.00;100668.34;6338426;22;20040;-87
2022/10/12 01:35:18;;;;;;;2.72;1.58;;;;;;;10.76;100.00;100657.59;6337997;22;20034;-82
2022/10/12 01:38:09;;;;;;;2.75;2.55;;;;;;;10.79;100.00;100676.19;6367827;22;20075;-88
2022/10/12 01:40:43;;;;;;;2.22;2.03;;;;;;;10.76;100.00;100665.91;6368810;22;20014;-88
2022/10/12 01:43:08;;;;;;;4.82;2.35;;;;;;;10.75;100.00;100659.63;6367286;22;20014;-87
2022/10/12 01:45:34;;;;;;;3.55;1.90;;;;;;;10.82;100.00;100661.47;6368772;22;20025;-87
2022/10/12 01:48:00;;;;;;;2.78;1.55;;;;;;;10.84;100.00;100667.38;6340188;22;20013;-87
2022/10/12 01:50:37;;;;;;;2.58;2.38;;;;;;;10.91;100.00;100666.47;6343935;22;20446;-87
2022/10/12 01:53:25;;;;;;;2.65;2.30;;;;;;;10.89;100.00;100664.13;6345608;22;20006;-87
2022/10/12 01:56:16;;;;;;;2.25;1.88;;;;;;;10.93;100.00;100664.81;6342160;22;20406;-87
2022/10/12 01:59:03;;;;;;;1.13;1.08;;;;;;;10.93;100.00;100666.81;6354468;22;20018;-87
2022/10/12 02:01:56;;;;;;;12.77;2.42;;;;;;;10.92;100.00;100671.59;6314617;22;20294;-86
2022/10/12 02:04:29;;;;;;;0.55;0.55;;;;;;;10.92;100.00;100674.34;6366537;22;20018;-88
2022/10/12 02:06:58;;;;;;;;;;;;;;;10.93;100.00;100675.94;6338911;22;20018;-87
2022/10/12 02:09:27;;;;;;;2.10;1.70;;;;;;;10.89;100.00;100666.88;6313776;22;19917;-87
2022/10/12 02:11:56;;;;;;;2.22;2.10;;;;;;;10.88;100.00;100668.09;6340254;22;20474;-87
2022/10/12 02:14:44;;;;;;;2.67;1.85;;;;;;;10.95;100.00;100675.53;6340739;22;20039;-87
2022/10/12 02:17:13;;;;;;;0.85;0.85;;;;;;;10.95;100.00;100667.97;6339763;22;20463;-87
2022/10/12 02:19:40;;;;;;;1.88;1.63;;;;;;;10.99;100.00;100668.69;6341030;22;20332;-87
2022/10/12 02:22:07;;;;;;;2.53;2.33;;;;;;;10.99;100.00;100651.25;6340313;22;20033;-87
2022/10/12 02:24:35;;;;;;;4.57;2.38;;;;;;;11.00;100.00;100656.38;6368834;22;20024;-88
2022/10/12 02:27:01;;;;;;;0.93;0.93;;;;;;;10.91;100.00;100647.84;6339430;22;20010;-87
2022/10/12 02:29:30;;;;;;;3.17;2.47;;;;;;;10.97;100.00;100659.22;6341189;22;20060;-87
2022/10/12 02:32:02;;;;;;;3.03;2.83;;;;;;;10.99;100.00;100652.03;6340193;22;20493;-87
2022/10/12 02:34:35;;;;;;;1.05;0.95;;;;;;;10.99;100.00;100652.03;6340631;22;20057;-88
2022/10/12 02:37:09;;;;;;;2.33;2.13;;;;;;;10.98;100.00;100652.47;6339983;22;20014;-88
2022/10/12 02:40:03;;;;;;;2.90;2.65;;;;;;;11.02;100.00;100656.75;6368547;22;20058;-88
2022/10/12 02:42:31;;;;;;;2.28;2.08;;;;;;;11.04;100.00;100657.09;6334620;22;20018;-87
2022/10/12 02:44:58;;;;;;;2.38;2.00;;;;;;;10.99;100.00;100643.72;6339784;22;20010;-88
2022/10/12 02:47:25;;;;;;;4.40;4.00;;;;;;;10.94;100.00;100660.06;6336030;22;20109;-87
2022/10/12 02:49:51;;;;;;;1.60;1.50;;;;;;;10.83;100.00;100657.50;6316624;22;20093;-87
2022/10/12 02:52:17;;;;;;;4.32;3.33;;;;;;;10.71;100.00;100644.22;6333552;22;20014;-87
2022/10/12 02:54:42;;;;;;;2.00;1.90;;;;;;;10.72;100.00;100648.56;6345339;22;20127;-87
2022/10/12 02:57:10;;;;;;;2.33;2.17;;;;;;;10.72;100.00;100654.09;6337680;22;20097;-87
2022/10/12 02:59:36;;;;;;;1.20;1.13;;;;;;;10.70;100.00;100640.66;6338118;22;20017;-88
2022/10/12 03:02:01;;;;;;;1.95;1.65;;;;;;;10.65;100.00;100637.59;6364756;22;20014;-88
2022/10/12 03:04:27;;;;;;;2.22;2.03;;;;;;;10.63;100.00;100648.34;6367139;22;20085;-88
2022/10/12 03:06:52;;;;;;;5.50;3.38;;;;;;;10.53;100.00;100644.53;6364101;22;20013;-88
2022/10/12 03:09:18;;;;;;;3.78;3.10;;;;;;;10.48;100.00;100633.13;6338901;22;20431;-87
2022/10/12 03:11:44;;;;;;;4.90;3.00;;;;;;;10.46;100.00;100641.88;6363421;22;20003;-87
2022/10/12 03:14:11;;;;;;;4.45;1.38;;;;;;;10.47;100.00;100640.69;6365303;22;20014;-87
2022/10/12 03:16:36;;;;;;;3.40;2.42;;;;;;;10.49;100.00;100640.25;6365459;22;20021;-87
2022/10/12 03:19:02;;;;;;;1.65;1.35;;;;;;;10.48;100.00;100633.13;6336644;22;20393;-87
2022/10/12 03:21:27;;;;;;;7.10;3.15;;;;;;;10.53;100.00;100646.50;6340053;22;20339;-87
2022/10/12 03:23:52;;;;;;;3.13;2.35;;;;;;;10.44;100.00;100644.28;6312559;22;20094;-87
2022/10/12 03:26:18;;;;;;;2.00;1.90;;;;;;;10.47;100.00;100653.75;6337432;22;20010;-87
2022/10/12 03:28:43;;;;;;;3.13;2.92;;;;;;;10.44;100.00;100649.03;6340561;22;20382;-82
2022/10/12 03:31:09;;;;;;;3.70;3.40;;;;;;;10.46;100.00;100646.63;6366583;22;20317;-82
2022/10/12 03:33:34;;;;;;;2.75;2.42;;;;;;;10.48;100.00;100650.53;6339487;22;20436;-82
2022/10/12 03:36:09;;;;;;;4.10;2.80;;;;;;;10.44;100.00;100658.13;5073694;28;20414;-77
2022/10/12 03:38:34;;;;;;;2.38;1.48;;;;;;;10.42;100.00;100645.91;5074110;28;20041;-78
2022/10/12 03:41:00;;;;;;;1.98;1.45;;;;;;;10.46;100.00;100646.63;5068684;28;20041;-79
2022/10/12 03:43:25;;;;;;;3.25;3.00;;;;;;;10.43;100.00;100662.16;5069404;28;20116;-77
2022/10/12 03:45:51;;;;;;;3.17;2.65;;;;;;;10.41;100.00;100655.44;5065450;28;20041;-78
2022/10/12 03:48:17;;;;;;;1.45;1.35;;;;;;;10.43;100.00;100662.16;5066860;28;20363;-78
2022/10/12 03:50:47;;;;;;;2.65;2.08;;;;;;;10.43;100.00;100664.13;5063577;28;20511;-77
2022/10/12 03:53:13;;;;;;;2.92;2.72;;;;;;;10.40;100.00;100656.63;5053310;28;20037;-86
2022/10/12 03:55:38;;;;;;;1.80;1.70;;;;;;;10.41;100.00;100667.31;5068866;28;20088;-86
2022/10/12 03:58:04;;;;;;;1.73;1.58;;;;;;;10.42;100.00;100663.34;5080533;28;20445;-87
2022/10/12 04:00:29;;;;;;;1.80;1.70;;;;;;;10.36;100.00;100653.13;5064844;28;20040;-86
2022/10/12 04:02:55;;;;;;;2.22;2.03;;;;;;;10.29;100.00;100660.38;5065796;28;21055;-86
2022/10/12 04:05:21;;;;;;;1.67;1.58;;;;;;;10.25;100.00;100659.63;5057808;28;20024;-85
2022/10/12 04:07:46;;;;;;;3.13;2.22;;;;;;;10.26;100.00;100664.00;5051088;28;20033;-85
2022/10/12 04:10:12;;;;;;;1.75;1.65;;;;;;;10.26;100.00;100671.50;5054423;28;20497;-86
2022/10/12 04:12:37;;;;;;;0.82;0.82;;;;;;;10.23;100.00;100662.03;5069542;28;20106;-77
2022/10/12 04:15:03;;;;;;;3.60;3.20;;;;;;;10.23;100.00;100664.81;5051521;28;20136;-77
2022/10/12 04:17:29;;;;;;;2.60;2.40;;;;;;;10.17;100.00;100666.50;5055259;28;20033;-77
2022/10/12 04:19:55;;;;;;;2.10;2.00;;;;;;;10.16;100.00;100662.16;5052438;28;20033;-77
2022/10/12 04:22:22;;;;;;;1.48;1.38;;;;;;;10.09;100.00;100662.22;5055773;28;20470;-77
2022/10/12 04:24:48;;;;;;;1.00;0.93;;;;;;;10.08;100.00;100660.66;5050978;28;20132;-77
2022/10/12 04:27:13;;;;;;;1.27;1.23;;;;;;;10.02;100.00;100662.34;5056892;28;20852;-77
2022/10/12 04:29:39;;;;;;;3.20;2.90;;;;;;;9.96;100.00;100661.22;5056585;28;20029;-77
2022/10/12 04:32:04;;;;;;;2.67;1.75;;;;;;;9.96;100.00;100666.78;5053899;28;20059;-86
2022/10/12 04:34:30;;;;;;;1.77;1.67;;;;;;;9.98;100.00;100667.16;5056383;28;20053;-84
2022/10/12 04:36:56;;;;;;;2.50;2.30;;;;;;;10.02;100.00;100662.34;5053752;28;20138;-85
2022/10/12 04:39:21;;;;;;;1.92;1.73;;;;;;;9.98;100.00;100661.59;5055938;28;20052;-85
2022/10/12 04:41:47;;;;;;;1.73;1.50;;;;;;;9.98;100.00;100675.47;5052024;28;20063;-85
2022/10/12 04:44:12;;;;;;;2.40;2.03;;;;;;;9.92;100.00;100663.25;5058669;28;20037;-84
2022/10/12 04:46:38;;;;;;;5.47;2.78;;;;;;;10.00;100.00;100664.72;5050245;28;20052;-85
2022/10/12 04:49:03;;;;;;;1.58;1.48;;;;;;;9.97;100.00;100654.50;5036772;28;20112;-84
2022/10/12 04:51:29;;;;;;;2.90;2.60;;;;;;;9.98;100.00;100678.25;5053249;28;20027;-77
2022/10/12 04:53:54;;;;;;;1.80;1.70;;;;;;;9.94;100.00;100671.97;5034722;28;20076;-77
2022/10/12 04:56:20;;;;;;;1.75;1.65;;;;;;;9.88;100.00;100672.81;5041088;28;20086;-77
2022/10/12 04:58:45;;;;;;;2.30;2.10;;;;;;;9.84;100.00;100678.41;5047669;28;20585;-77
2022/10/12 05:01:11;;;;;;;1.10;0.93;;;;;;;9.83;100.00;100677.63;5037525;28;20059;-78
2022/10/12 05:03:36;;;;;;;2.08;1.98;;;;;;;9.87;100.00;100677.56;5041343;28;20405;-77
2022/10/12 05:06:02;;;;;;;2.38;1.60;;;;;;;9.83;100.00;100682.38;5022907;28;20032;-77
2022/10/12 05:08:27;;;;;;;3.83;1.67;;;;;;;9.80;100.00;100677.69;5041297;28;20035;-76
2022/10/12 05:10:55;;;;;;;2.92;2.30;;;;;;;9.79;100.00;100681.66;5038308;28;20414;-85
2022/10/12 05:13:20;;;;;;;2.42;2.22;;;;;;;9.74;100.00;100662.75;5035921;28;20036;-85
2022/10/12 05:15:46;;;;;;;0.98;0.85;;;;;;;9.75;100.00;100678.91;5051507;28;20395;-85
2022/10/12 05:18:12;;;;;;;0.88;0.88;;;;;;;9.76;100.00;100679.72;5042172;28;20056;-85
2022/10/12 05:20:37;;;;;;;1.90;1.75;;;;;;;9.76;100.00;100672.19;5033997;28;20037;-87
2022/10/12 05:23:03;;;;;;;1.75;1.65;;;;;;;9.79;100.00;100687.19;5053244;28;20538;-85
2022/10/12 05:25:28;;;;;;;17.63;2.75;;;;;;;9.83;100.00;100688.72;5037966;28;20036;-85
2022/10/12 05:27:55;;;;;;;4.15;3.00;;;;;;;9.90;100.00;100687.06;5035072;28;20036;-77
2022/10/12 05:30:20;;;;;;;1.90;1.75;;;;;;;9.86;100.00;100684.34;5051147;28;20036;-87
2022/10/12 05:32:48;;;;;;;1.25;0.93;;;;;;;9.77;100.00;100684.06;5048413;28;20224;-86
2022/10/12 05:35:14;;;;;;;2.65;2.33;;;;;;;9.88;100.00;100690.25;5041329;28;20054;-85
2022/10/12 05:37:40;;;;;;;1.90;1.80;;;;;;;9.79;100.00;100692.72;5037466;28;20041;-86
2022/10/12 05:40:06;;;;;;;1.13;1.05;;;;;;;9.87;100.00;100687.91;5042724;28;20419;-87
2022/10/12 05:42:33;;;;;;;1.90;1.77;;;;;;;9.95;100.00;100690.13;5036676;28;20104;-86
2022/10/12 05:44:59;;;;;;;4.28;2.20;;;;;;;9.99;100.00;100690.88;5041829;28;20060;-87
2022/10/12 05:47:24;;;;;;;0.93;0.85;;;;;;;10.05;100.00;100688.44;5036290;28;20079;-78
2022/10/12 05:49:50;;;;;;;2.20;1.45;;;;;;;10.07;100.00;100702.66;5045410;28;20434;-78
2022/10/12 05:52:15;;;;;;;1.65;1.55;;;;;;;10.16;100.00;100705.72;5045953;28;20040;-76
2022/10/12 05:54:41;;;;;;;2.28;2.08;;;;;;;10.35;100.00;100707.03;5050985;28;20048;-77
2022/10/12 05:57:06;;;;;;;6.20;3.50;;;;;;;10.44;100.00;100704.50;5051777;28;20080;-77
2022/10/12 05:59:32;;;;;;;2.10;1.98;;;;;;;10.49;100.00;100706.81;5050153;28;20059;-77
2022/10/12 06:01:57;;;;;;;2.92;2.38;;;;;;;10.55;100.00;100708.69;5051655;28;20032;-77
2022/10/12 06:04:23;;;;;;;1.52;1.30;;;;;;;10.61;100.00;100707.00;5051697;28;20041;-77
2022/10/12 06:06:48;;;;;;;1.63;1.52;;;;;;;10.72;100.00;100704.03;5052094;28;20025;-86
2022/10/12 06:09:14;;;;;;;0.88;0.75;;;;;;;10.74;100.00;100708.00;5052001;28;20612;-85
2022/10/12 06:11:39;;;;;;;4.13;1.73;;;;;;;10.73;100.00;100700.06;5050718;28;20017;-85
2022/10/12 06:14:05;;;;;;;2.47;2.20;;;;;;;10.79;100.00;100697.63;5049987;28;20045;-86
2022/10/12 06:16:30;;;;;;;3.45;2.60;;;;;;;10.74;100.00;100702.44;5051020;28;20029;-85
2022/10/12 06:18:56;;;;;;;1.70;1.60;;;;;;;10.81;100.00;100707.06;5052056;28;20065;-85
2022/10/12 06:21:21;;;;;;;2.13;1.98;;;;;;;10.91;100.00;100703.34;5051650;28;20191;-85
2022/10/12 06:23:47;;;;;;;1.63;1.15;;;;;;;10.97;100.00;100712.75;5052096;28;20495;-86
2022/10/12 06:26:13;;;;;;;2.53;2.33;;;;;;;11.02;100.00;100712.25;5050872;28;20071;-77
2022/10/12 06:28:38;;;;;;;3.08;2.30;;;;;;;11.04;100.00;100704.28;5048346;28;20038;-77
2022/10/12 06:31:04;;;;;;;2.15;1.42;;;;;;;11.13;100.00;100714.84;5047280;28;20033;-77
2022/10/12 06:33:30;;;;;;;3.30;2.97;;;;;;;11.20;100.00;100712.72;5063753;28;20379;-77
2022/10/12 06:35:56;;;;;;;3.25;2.20;;;;;;;11.29;100.00;100714.16;5032153;28;20049;-77
2022/10/12 06:38:22;;;;;;;2.05;1.88;;;;;;;11.35;100.00;100713.25;5031601;28;20406;-77
2022/10/12 06:40:47;;;;;;;1.90;1.63;;;;;;;11.30;100.00;100721.28;5031961;28;20104;-76
2022/10/12 06:43:13;;;;;;;2.67;2.30;;;;;;;11.37;100.00;100721.91;5031951;28;20441;-77
2022/10/12 06:45:39;;;;;;;3.67;2.17;;;;;;;11.48;100.00;100722.53;5041322;28;20494;-85
2022/10/12 06:48:05;;;;;;;3.35;2.85;;;;;;;11.53;100.00;100722.00;5050273;28;20029;-86
2022/10/12 06:50:31;;;;;;;2.88;2.13;;;;;;;11.64;100.00;100716.25;5050249;28;20532;-86
2022/10/12 06:52:56;;;;;;;3.17;2.88;;;;;;;11.64;100.00;100722.59;5050363;28;20037;-86
2022/10/12 06:55:22;;;;;;;4.10;2.30;;;;;;;11.75;100.00;100727.97;5050781;28;20037;-86
2022/10/12 06:57:47;;;;;;;1.70;1.60;;;;;;;11.95;100.00;100728.72;5051249;28;20500;-86
2022/10/12 07:00:13;;;;;;;2.67;2.42;;;;;;;12.11;100.00;100730.75;5048466;28;20402;-86
2022/10/12 07:02:39;;;;;;;4.45;3.05;;;;;;;12.26;100.00;100728.44;5031138;28;20034;-86
2022/10/12 07:05:06;;;;;;;0.90;0.90;;;;;;;12.40;100.00;100733.69;5029791;28;20446;-77
2022/10/12 07:07:33;;;;;;;1.60;1.50;;;;;;;12.35;100.00;100739.75;5029886;28;20125;-77
2022/10/12 07:09:58;;;;;;;1.65;1.55;;;;;;;12.41;100.00;100738.84;5029252;28;20033;-77
2022/10/12 07:12:24;;;;;;;2.00;1.90;;;;;;;12.34;100.00;100738.97;5043125;28;20383;-77
2022/10/12 07:14:49;;;;;;;1.88;1.77;;;;;;;12.43;100.00;100744.75;5041438;28;20494;-77
2022/10/12 07:17:15;;;;;;;2.05;1.85;;;;;;;12.42;100.00;100742.38;5046290;28;20398;-77
2022/10/12 07:19:40;;;;;;;2.92;2.65;;;;;;;12.56;100.00;100737.28;5030934;28;20463;-77
2022/10/12 07:22:06;;;;;;;1.90;1.55;;;;;;;12.59;100.00;100732.84;5046187;28;20041;-77
2022/10/12 07:24:35;;;;;;;2.70;2.22;;;;;;;12.80;100.00;100731.53;5062622;28;20033;-85
2022/10/12 07:27:19;;;;;;;2.10;1.48;;;;;;;13.04;100.00;100730.91;5030816;28;20048;-86
2022/10/12 07:29:45;;;;;;;0.85;0.85;;;;;;;13.26;100.00;100733.97;5030890;28;20069;-86
2022/10/12 07:32:10;;;;;;;1.67;1.55;;;;;;;13.41;100.00;100726.00;5031788;28;20068;-85
2022/10/12 07:34:36;;;;;;;2.10;1.77;;;;;;;13.70;100.00;100721.19;5030545;28;20172;-86
2022/10/12 07:37:02;;;;;;;3.03;2.72;;;;;;;13.94;100.00;100725.28;5030937;28;20112;-86
2022/10/12 07:39:28;;;;;;;3.03;1.90;;;;;;;14.11;100.00;100736.34;5030531;28;20091;-86
2022/10/12 07:41:53;;;;;;;2.80;1.58;;;;;;;14.30;100.00;100727.78;5046134;28;20510;-77
2022/10/12 07:44:19;;;;;;;2.95;2.40;;;;;;;14.60;100.00;100732.03;5045592;28;20040;-77
2022/10/12 07:46:45;;;;;;;1.30;1.05;;;;;;;14.91;100.00;100737.81;5029668;28;20491;-77
2022/10/12 07:49:11;;;;;;;4.63;3.03;;;;;;;14.93;100.00;100733.31;5029991;28;20095;-77
2022/10/12 07:51:37;;;;;;;1.65;1.55;;;;;;;14.89;100.00;100743.84;5030986;28;20079;-77
2022/10/12 07:54:03;;;;;;;1.80;1.55;;;;;;;15.02;100.00;100754.19;5029362;28;20041;-77
2022/10/12 07:56:28;;;;;;;5.82;2.45;;;;;;;15.06;100.00;100746.47;5030454;28;20061;-77
2022/10/12 07:58:56;;;;;;;1.83;1.73;;;;;;;15.23;100.00;100748.69;5030168;28;20030;-85
2022/10/12 08:01:24;;;;;;;5.25;1.95;;;;;;;15.44;100.00;100749.97;5030680;28;20542;-77
2022/10/12 08:03:50;;;;;;;6.13;3.90;;;;;;;15.48;100.00;100744.25;5030510;28;20379;-77
2022/10/12 08:06:17;;;;;;;2.47;2.28;;;;;;;15.55;100.00;100746.81;5028924;28;20021;-77
2022/10/12 08:08:43;;;;;;;17.85;4.05;;;;;;;15.75;100.00;100748.06;5030663;28;20044;-77
2022/10/12 08:11:10;;;;;;;5.93;3.72;;;;;;;15.70;100.00;100754.22;5032408;28;20045;-77
2022/10/12 08:13:35;;;;;;;1.20;1.10;;;;;;;16.01;100.00;100754.28;5042965;28;20463;-77
2022/10/12 08:16:02;;;;;;;3.58;2.92;;;;;;;16.22;100.00;100747.88;5030703;28;20079;-78
2022/10/12 08:18:27;;;;;;;1.35;1.23;;;;;;;15.93;100.00;100757.81;5029295;28;20037;-78
2022/10/12 08:20:53;;;;;;;3.25;3.00;;;;;;;16.26;100.00;100742.13;5031999;28;20125;-85
2022/10/12 08:23:19;;;;;;;1.85;1.55;;;;;;;16.46;100.00;100745.31;5034277;28;20025;-86
2022/10/12 08:25:52;;;;;;;2.83;2.20;;;;;;;16.41;100.00;100733.97;5034421;28;20044;-86
2022/10/12 08:28:17;;;;;;;3.47;2.55;;;;;;;16.37;100.00;100739.72;5039065;28;20033;-85
2022/10/12 08:30:43;;;;;;;2.35;2.15;;;;;;;16.61;100.00;100740.78;5055997;28;20059;-84
2022/10/12 08:33:08;;;;;;;1.60;1.42;;;;;;;16.78;100.00;100732.88;5071182;28;20116;-84
2022/10/12 08:35:37;;;;;;;2.75;2.10;;;;;;;17.04;100.00;100733.41;5069197;28;20045;-84
2022/10/12 08:38:02;;;;;;;4.10;1.35;;;;;;;17.04;100.00;100727.78;5068916;28;20041;-84
2022/10/12 08:40:32;;;;;;;8.65;1.98;;;;;;;17.43;100.00;100738.09;5059227;28;20071;-77
2022/10/12 08:43:23;;;;;;;1.48;1.05;;;;;;;17.48;98.98;100731.88;5046566;28;20072;-77
2022/10/12 08:45:52;;;;;;;3.08;2.22;;;;;;;17.58;100.00;100741.88;5049280;28;20029;-77
2022/10/12 08:48:23;;;;;;;1.75;1.65;;;;;;;17.53;97.39;100731.25;5048837;28;20560;-77
2022/10/12 08:50:55;;;;;;;1.83;1.73;;;;;;;17.84;97.45;100735.91;5049480;28;20040;-77
2022/10/12 08:53:24;;;;;;;2.03;1.65;;;;;;;18.24;97.09;100733.63;5049106;28;20099;-77
2022/10/12 08:55:51;;;;;;;2.20;2.00;;;;;;;18.39;94.99;100728.91;5032738;28;20095;-77
2022/10/12 08:58:19;;;;;;;11.43;2.42;;;;;;;18.70;93.60;100737.06;5048027;28;20044;-86
2022/10/12 09:00:48;;;;;;;27.95;2.90;;;;;;;18.56;93.73;100735.72;5032654;28;20030;-86
2022/10/12 09:03:32;;;;;;;2.60;2.03;;;;;;;18.56;91.67;100724.47;5048930;28;20025;-86
2022/10/12 09:06:12;;;;;;;3.47;2.97;;;;;;;18.61;92.56;100729.47;5033531;28;20044;-86
2022/10/12 09:08:52;;;;;;;3.22;1.58;;;;;;;18.64;94.38;100727.75;5033531;28;20045;-86
2022/10/12 09:11:45;;;;;;;4.60;2.70;;;;;;;18.89;93.28;100727.28;5036833;28;20500;-86
2022/10/12 09:14:28;;;;;;;1.45;1.15;;;;;;;18.98;89.96;100730.03;5033113;28;20502;-86
2022/10/12 09:16:55;;;;;;;1.92;1.75;;;;;;;19.26;91.52;100727.03;5048841;28;20029;-77
2022/10/12 09:19:25;;;;;;;2.33;2.08;;;;;;;19.26;92.05;100727.03;5031571;28;20034;-87
2022/10/12 09:21:51;;;;;;;4.45;1.70;;;;;;;19.44;89.69;100733.34;5048705;28;20041;-87
2022/10/12 09:24:24;;;;;;;3.20;1.77;;;;;;;19.24;89.29;100735.97;5032940;28;20041;-86
2022/10/12 09:26:52;;;;;;;3.30;2.20;;;;;;;19.25;89.51;100736.75;5048605;28;20043;-87
2022/10/12 09:29:30;;;;;;;2.42;1.92;;;;;;;18.76;91.79;100731.59;5032591;28;20403;-86
2022/10/12 09:32:11;;;;;;;2.60;2.30;;;;;;;18.53;93.73;100735.91;5031763;28;20557;-86
2022/10/12 09:34:37;;;;;;;2.88;2.35;;;;;;;18.37;93.94;100737.03;5032646;28;20049;-87
2022/10/12 09:37:03;;;;;;;1.88;1.70;;;;;;;18.25;95.07;100735.19;5048489;28;20034;-78
2022/10/12 09:39:34;;;;;;;1.90;1.67;;;;;;;18.46;95.37;100733.41;5032611;28;20403;-78
2022/10/12 09:42:00;;;;;;;1.88;1.38;;;;;;;18.39;94.21;100734.53;5038096;28;20508;-78
2022/10/12 09:44:39;;;;;;;0.98;0.90;;;;;;;18.56;92.49;100744.16;5037758;28;20125;-78
2022/10/12 09:47:27;;;;;;;2.53;2.33;;;;;;;18.51;91.76;100736.34;5047921;28;20075;-78
2022/10/12 09:50:06;;;;;;;1.75;1.60;;;;;;;18.76;93.24;100735.19;5031991;28;20128;-76
2022/10/12 09:52:34;;;;;;;2.88;2.00;;;;;;;19.06;92.18;100741.69;5032490;28;20034;-78
2022/10/12 09:55:24;;;;;;;2.03;1.92;;;;;;;18.86;90.43;100738.69;5032496;28;20103;-77
2022/10/12 09:58:16;;;;;;;1.88;1.38;;;;;;;18.80;91.36;100740.63;5037211;28;20047;-87
2022/10/12 10:00:42;;;;;;;1.98;1.63;;;;;;;18.86;90.06;100736.66;5051343;28;20048;-86
2022/10/12 10:03:22;;;;;;;3.85;1.92;;;;;;;19.07;90.28;100732.00;5043398;28;20025;-86
2022/10/12 10:06:02;;;;;;;1.17;1.08;;;;;;;19.26;91.30;100730.63;5032700;28;20395;-86
2022/10/12 10:08:27;;;;;;;4.88;2.60;;;;;;;19.55;88.46;100738.38;5032005;28;20041;-86
2022/10/12 10:10:58;;;;;;;3.60;2.15;;;;;;;19.83;86.61;100727.66;5033328;28;20635;-85
2022/10/12 10:13:27;;;;;;;2.40;1.58;;;;;;;20.19;87.31;100735.72;5051855;28;20033;-78
2022/10/12 10:16:05;;;;;;;2.67;2.22;;;;;;;20.63;84.92;100718.75;5050816;28;20047;-86
2022/10/12 10:18:38;;;;;;;2.95;2.13;;;;;;;20.70;80.94;100723.22;5035119;28;20033;-87
2022/10/12 10:21:06;;;;;;;3.78;2.85;;;;;;;20.44;82.07;100731.53;5014330;28;20088;-87
2022/10/12 10:23:38;;;;;;;2.47;2.28;;;;;;;20.58;82.06;100722.28;5030838;28;20406;-86
2022/10/12 10:26:07;;;;;;;1.90;1.17;;;;;;;20.40;81.32;100731.75;5031082;28;20395;-86
2022/10/12 10:28:35;;;;;;;4.53;1.92;;;;;;;20.47;78.35;100731.34;5031914;28;20030;-86
2022/10/12 10:31:03;;;;;;;2.83;2.30;;;;;;;20.57;79.95;100731.22;5030797;28;20034;-86
2022/10/12 10:33:33;;;;;;;1.92;1.42;;;;;;;20.66;80.96;100726.25;5031717;28;20034;-79
2022/10/12 10:36:11;;;;;;;2.58;2.13;;;;;;;20.64;78.24;100731.59;5031876;28;20433;-78
2022/10/12 10:39:01;;;;;;;2.08;1.88;;;;;;;20.61;78.44;100726.16;5031441;28;20040;-79
2022/10/12 10:41:37;;;;;;;3.75;2.97;;;;;;;20.23;78.77;100730.66;5046720;28;20125;-78
2022/10/12 10:44:03;;;;;;;2.15;1.58;;;;;;;20.35;79.93;100729.59;5031392;28;20038;-79
2022/10/12 10:46:32;;;;;;;2.10;1.90;;;;;;;20.55;78.93;100728.09;5032324;28;20030;-77
2022/10/12 10:49:05;;;;;;;7.13;3.05;;;;;;;20.67;79.98;100729.81;5042236;28;20119;-78
2022/10/12 10:51:43;;;;;;;2.17;1.98;;;;;;;20.90;79.56;100706.34;5030458;28;20041;-88
2022/10/12 10:54:18;;;;;;;1.05;0.95;;;;;;;21.11;78.56;100719.16;5031517;28;20367;-78
2022/10/12 10:56:45;;;;;;;3.28;1.98;;;;;;;21.22;75.83;100722.16;5031584;28;20064;-78
2022/10/12 10:59:38;;;;;;;1.73;1.10;;;;;;;21.39;74.72;100714.66;5031189;28;20513;-78
2022/10/12 11:02:27;;;;;;;2.92;2.45;;;;;;;21.27;77.19;100715.81;5030968;28;20128;-79
2022/10/12 11:05:00;;;;;;;7.68;2.38;;;;;;;21.48;76.53;100715.78;5046942;28;20041;-79
2022/10/12 11:07:35;;;;;;;5.65;2.15;;;;;;;21.36;74.81;100712.84;5031355;28;20038;-79
2022/10/12 11:10:04;;;;;;;3.78;2.30;;;;;;;21.74;73.53;100705.28;5030267;28;20400;-88
2022/10/12 11:12:34;;;;;;;1.52;1.42;;;;;;;21.52;72.63;100702.22;5043316;28;20025;-78
2022/10/12 11:15:06;;;;;;;1.48;1.25;;;;;;;21.62;71.30;100703.63;5050961;28;20127;-78
2022/10/12 11:17:35;;;;;;;3.80;2.22;;;;;;;21.28;75.43;100699.66;5043273;28;20529;-77
2022/10/12 11:20:05;;;;;;;1.35;1.08;;;;;;;21.43;72.21;100705.22;5046641;28;20116;-78
2022/10/12 11:22:47;;;;;;;1.33;1.20;;;;;;;21.40;73.06;100696.47;5030925;28;20395;-77
2022/10/12 11:25:43;;;;;;;3.60;1.88;;;;;;;21.14;73.01;100698.47;5031015;28;20045;-78
2022/10/12 11:28:13;;;;;;;2.30;1.63;;;;;;;21.42;71.88;100698.03;5029790;28;20049;-77